createdAt,value
2022-10-18T00:01:53.506Z,15.70
2022-10-18T00:04:29.107Z,15.70
2022-10-18T00:06:57.618Z,15.70
2022-10-18T00:09:34.052Z,15.70
2022-10-18T00:12:02.563Z,15.70
2022-10-18T00:14:38.009Z,15.70
2022-10-18T00:17:06.588Z,15.70
2022-10-18T00:19:41.935Z,15.70
2022-10-18T00:22:10.482Z,15.70
2022-10-18T00:24:46.908Z,15.70
2022-10-18T00:27:15.392Z,15.70
2022-10-18T00:29:49.863Z,15.60
2022-10-18T00:32:18.432Z,15.60
2022-10-18T00:34:53.067Z,15.60
2022-10-18T00:37:21.508Z,15.70
2022-10-18T00:39:58.037Z,15.70
2022-10-18T00:42:31.830Z,15.70
2022-10-18T00:45:24.962Z,15.70
2022-10-18T00:48:03.562Z,15.70
2022-10-18T00:50:41.929Z,15.70
2022-10-18T00:53:20.917Z,15.70
2022-10-18T00:55:51.561Z,15.70
2022-10-18T00:58:28.121Z,15.60
2022-10-18T01:00:56.728Z,15.70
2022-10-18T01:03:32.099Z,15.60
2022-10-18T01:06:00.682Z,15.60
2022-10-18T01:08:55.150Z,15.60
2022-10-18T01:11:53.409Z,15.60
2022-10-18T01:14:42.133Z,15.60
2022-10-18T01:17:17.022Z,15.60
2022-10-18T01:20:27.312Z,15.60
2022-10-18T01:23:01.906Z,15.60
2022-10-18T01:25:48.954Z,15.60
2022-10-18T01:28:33.421Z,15.60
2022-10-18T01:31:12.005Z,15.60
2022-10-18T01:33:44.399Z,15.60
2022-10-18T01:36:26.039Z,15.60
2022-10-18T01:38:56.720Z,15.60
2022-10-18T01:41:34.945Z,15.60
2022-10-18T01:44:06.277Z,15.50
2022-10-18T01:46:51.156Z,15.50
2022-10-18T01:49:19.616Z,15.60
2022-10-18T01:51:55.124Z,15.50
2022-10-18T01:54:31.886Z,15.60
2022-10-18T01:57:09.976Z,15.60
2022-10-18T01:59:49.228Z,15.60
2022-10-18T02:02:48.002Z,15.60
2022-10-18T02:05:26.023Z,15.60
2022-10-18T02:08:22.095Z,15.50
2022-10-18T02:10:55.701Z,15.50
2022-10-18T02:13:33.063Z,15.50
2022-10-18T02:16:06.454Z,15.50
2022-10-18T02:18:48.180Z,15.50
2022-10-18T02:21:20.864Z,15.50
2022-10-18T02:23:56.034Z,15.50
2022-10-18T02:26:24.662Z,15.50
2022-10-18T02:29:00.031Z,15.60
2022-10-18T02:31:32.484Z,15.60
2022-10-18T02:34:12.018Z,15.60
2022-10-18T02:36:44.882Z,15.60
2022-10-18T02:39:23.038Z,15.60
2022-10-18T02:41:51.599Z,15.70
2022-10-18T02:44:26.976Z,15.60
2022-10-18T02:47:02.608Z,15.60
2022-10-18T02:49:39.045Z,15.70
2022-10-18T02:52:07.584Z,15.60
2022-10-18T02:54:42.125Z,15.70
2022-10-18T02:57:10.494Z,15.60
2022-10-18T02:59:45.064Z,15.60
2022-10-18T03:02:13.455Z,15.60
2022-10-18T03:04:49.063Z,15.60
2022-10-18T03:07:17.638Z,15.60
2022-10-18T03:09:52.197Z,15.60
2022-10-18T03:12:20.797Z,15.60
2022-10-18T03:14:56.121Z,15.60
2022-10-18T03:17:24.680Z,15.60
2022-10-18T03:20:01.116Z,15.50
2022-10-18T03:25:10.126Z,15.40
2022-10-18T03:27:38.478Z,15.40
2022-10-18T03:30:15.239Z,15.40
2022-10-18T03:32:43.616Z,15.40
2022-10-18T03:35:20.257Z,15.30
2022-10-18T03:37:48.699Z,15.40
2022-10-18T03:40:24.206Z,15.40
2022-10-18T03:42:52.680Z,15.40
2022-10-18T03:45:31.181Z,15.40
2022-10-18T03:48:06.900Z,15.40
2022-10-18T03:50:43.283Z,15.40
2022-10-18T03:53:11.857Z,15.40
2022-10-18T03:55:47.109Z,15.40
2022-10-18T03:58:15.649Z,15.40
2022-10-18T04:00:50.317Z,15.50
2022-10-18T04:03:19.355Z,15.40
2022-10-18T04:05:56.114Z,15.50
2022-10-18T04:08:24.583Z,15.50
2022-10-18T04:11:00.153Z,15.50
2022-10-18T04:13:28.556Z,15.50
2022-10-18T04:16:03.330Z,15.50
2022-10-18T04:18:31.979Z,15.40
2022-10-18T04:21:08.297Z,15.40
2022-10-18T04:23:38.847Z,15.40
2022-10-18T04:26:14.159Z,15.50
2022-10-18T04:28:42.749Z,15.40
2022-10-18T04:31:18.215Z,15.40
2022-10-18T04:33:46.695Z,15.40
2022-10-18T04:36:23.144Z,15.50
2022-10-18T04:38:51.566Z,15.50
2022-10-18T04:41:26.225Z,15.40
2022-10-18T04:43:54.653Z,15.40
2022-10-18T04:46:29.312Z,15.40
2022-10-18T04:48:57.921Z,15.40
2022-10-18T04:51:34.336Z,15.30
2022-10-18T04:54:02.950Z,15.30
2022-10-18T04:56:38.141Z,15.30
2022-10-18T04:59:06.623Z,15.30
2022-10-18T05:01:41.305Z,15.30
2022-10-18T05:04:10.197Z,15.30
2022-10-18T05:06:47.136Z,15.30
2022-10-18T05:09:15.987Z,15.30
2022-10-18T05:11:51.338Z,15.30
2022-10-18T05:14:26.221Z,15.30
2022-10-18T05:16:54.763Z,15.30
2022-10-18T05:19:30.239Z,15.20
2022-10-18T05:21:59.975Z,15.20
2022-10-18T05:24:35.359Z,15.20
2022-10-18T05:27:03.822Z,15.20
2022-10-18T05:29:39.349Z,15.20
2022-10-18T05:32:07.970Z,15.20
2022-10-18T05:34:43.199Z,15.20
2022-10-18T05:37:13.381Z,15.10
2022-10-18T05:39:48.439Z,15.10
2022-10-18T05:42:17.190Z,15.20
2022-10-18T05:44:52.403Z,15.20
2022-10-18T05:47:27.857Z,15.20
2022-10-18T05:50:03.227Z,15.20
2022-10-18T05:52:33.329Z,15.20
2022-10-18T05:55:08.385Z,15.10
2022-10-18T05:57:36.780Z,15.10
2022-10-18T06:00:13.383Z,15.10
2022-10-18T06:02:41.912Z,15.10
2022-10-18T06:05:17.255Z,15.10
2022-10-18T06:07:47.248Z,15.10
2022-10-18T06:10:22.304Z,15.00
2022-10-18T06:12:50.869Z,15.00
2022-10-18T06:15:26.240Z,15.00
2022-10-18T06:17:54.770Z,14.90
2022-10-18T06:20:29.424Z,14.90
2022-10-18T06:22:59.346Z,14.80
2022-10-18T06:25:34.445Z,14.80
2022-10-18T06:28:02.826Z,14.70
2022-10-18T06:30:37.240Z,14.70
2022-10-18T06:33:05.817Z,14.70
2022-10-18T06:35:41.488Z,14.70
2022-10-18T06:38:11.507Z,14.60
2022-10-18T06:40:46.452Z,14.70
2022-10-18T06:43:21.013Z,14.70
2022-10-18T06:46:03.322Z,14.70
2022-10-18T06:48:38.854Z,14.80
2022-10-18T06:51:16.311Z,14.80
2022-10-18T06:53:59.013Z,14.80
2022-10-18T06:56:42.309Z,14.80
2022-10-18T06:59:10.821Z,14.80
2022-10-18T07:01:45.321Z,14.80
2022-10-18T07:04:13.919Z,14.90
2022-10-18T07:06:49.447Z,14.90
2022-10-18T07:09:19.431Z,14.90
2022-10-18T07:11:54.360Z,14.90
2022-10-18T07:14:26.900Z,15.00
2022-10-18T07:17:06.268Z,15.00
2022-10-18T07:19:34.643Z,15.00
2022-10-18T07:22:09.356Z,15.00
2022-10-18T07:24:39.635Z,15.00
2022-10-18T07:27:14.289Z,15.00
2022-10-18T07:29:42.960Z,15.00
2022-10-18T07:32:18.372Z,15.10
2022-10-18T07:34:46.767Z,15.00
2022-10-18T07:37:21.842Z,15.00
2022-10-18T07:39:53.647Z,15.00
2022-10-18T07:42:28.343Z,15.20
2022-10-18T07:45:17.482Z,15.10
2022-10-18T07:47:52.333Z,15.00
2022-10-18T07:50:20.642Z,15.10
2022-10-18T07:52:55.352Z,15.10
2022-10-18T07:55:25.324Z,15.10
2022-10-18T07:58:00.373Z,15.10
2022-10-18T08:00:29.054Z,15.10
2022-10-18T08:03:04.484Z,15.20
2022-10-18T08:08:13.395Z,15.20
2022-10-18T08:10:49.367Z,15.20
2022-10-18T08:13:18.430Z,15.20
2022-10-18T08:15:53.437Z,15.20
2022-10-18T08:18:21.822Z,15.20
2022-10-18T08:20:56.514Z,15.20
2022-10-18T08:23:24.992Z,15.20
2022-10-18T08:26:01.496Z,15.20
2022-10-18T08:28:30.192Z,15.20
2022-10-18T08:31:05.523Z,15.20
2022-10-18T08:33:34.166Z,15.20
2022-10-18T08:36:12.349Z,15.20
2022-10-18T08:38:42.137Z,15.20
2022-10-18T08:41:38.368Z,15.20
2022-10-18T08:44:11.981Z,15.30
2022-10-18T08:46:55.583Z,15.30
2022-10-18T08:49:29.145Z,15.40
2022-10-18T08:52:05.544Z,15.40
2022-10-18T08:54:40.295Z,15.40
2022-10-18T08:57:22.358Z,15.40
2022-10-18T08:59:50.835Z,15.40
2022-10-18T09:02:43.444Z,15.40
2022-10-18T09:05:24.077Z,15.40
2022-10-18T09:08:18.550Z,15.50
2022-10-18T09:14:10.598Z,15.40
2022-10-18T09:16:46.323Z,15.40
2022-10-18T09:19:34.464Z,15.40
2022-10-18T09:22:12.202Z,15.40
2022-10-18T09:24:48.449Z,15.50
2022-10-18T09:27:19.367Z,15.50
2022-10-18T09:30:09.558Z,15.60
2022-10-18T09:32:49.020Z,15.70
2022-10-18T09:35:29.452Z,15.80
2022-10-18T09:38:06.215Z,15.90
2022-10-18T09:40:46.503Z,15.90
2022-10-18T09:43:22.588Z,16.00
2022-10-18T09:46:10.041Z,16.10
2022-10-18T09:48:47.791Z,16.30
2022-10-18T09:51:28.483Z,16.50
2022-10-18T09:54:20.788Z,16.40
2022-10-18T09:56:58.601Z,16.40
2022-10-18T09:59:35.411Z,16.50
2022-10-18T10:02:12.463Z,16.70
2022-10-18T10:04:40.964Z,16.70
2022-10-18T10:07:20.635Z,16.60
2022-10-18T10:09:50.934Z,16.50
2022-10-18T10:12:38.793Z,16.50
2022-10-18T10:15:20.730Z,16.70
2022-10-18T10:18:14.527Z,16.90
2022-10-18T10:20:46.209Z,17.10
2022-10-18T10:23:27.567Z,17.20
2022-10-18T10:25:57.701Z,17.40
2022-10-18T10:28:36.648Z,17.50
2022-10-18T10:31:20.663Z,17.70
2022-10-18T10:34:06.619Z,17.90
2022-10-18T10:36:35.597Z,18.10
2022-10-18T10:39:12.728Z,18.30
2022-10-18T10:41:42.748Z,18.60
2022-10-18T10:44:24.472Z,18.80
2022-10-18T10:47:01.081Z,18.90
2022-10-18T10:49:54.550Z,19.10
2022-10-18T10:52:29.037Z,18.90
2022-10-18T10:55:16.728Z,19.00
2022-10-18T10:57:53.985Z,19.10
2022-10-18T11:00:45.532Z,19.20
2022-10-18T11:03:33.807Z,19.60
2022-10-18T11:06:10.815Z,19.60
2022-10-18T11:08:43.450Z,19.50
2022-10-18T11:11:27.465Z,19.40
2022-10-18T11:14:32.498Z,19.50
2022-10-18T11:17:07.894Z,19.50
2022-10-18T11:19:45.871Z,19.50
2022-10-18T11:22:26.592Z,19.60
2022-10-18T11:24:54.973Z,19.70
2022-10-18T11:27:36.540Z,19.90
2022-10-18T11:30:28.111Z,19.90
2022-10-18T11:33:10.591Z,20.10
2022-10-18T11:35:45.859Z,20.30
2022-10-18T11:38:35.515Z,20.30
2022-10-18T11:41:22.659Z,20.60
2022-10-18T11:44:04.028Z,20.90
2022-10-18T11:46:52.996Z,20.80
2022-10-18T11:49:44.549Z,21.10
2022-10-18T11:52:21.466Z,21.30
2022-10-18T11:55:27.656Z,21.40
2022-10-18T11:58:08.307Z,21.40
2022-10-18T12:00:55.558Z,21.40
2022-10-18T12:03:34.980Z,21.50
2022-10-18T12:06:13.981Z,21.60
2022-10-18T12:08:47.537Z,21.70
2022-10-18T12:11:28.576Z,21.70
2022-10-18T12:13:59.752Z,21.80
2022-10-18T12:16:50.996Z,21.80
2022-10-18T12:19:26.477Z,21.70
2022-10-18T12:22:05.765Z,21.40
2022-10-18T12:24:36.021Z,21.50
2022-10-18T12:27:12.638Z,21.60
2022-10-18T12:29:50.376Z,21.80
2022-10-18T12:32:29.907Z,21.80
2022-10-18T12:35:01.790Z,21.80
2022-10-18T12:38:12.673Z,21.60
2022-10-18T12:40:44.912Z,21.10
2022-10-18T12:43:27.569Z,20.80
2022-10-18T12:46:12.203Z,20.40
2022-10-18T12:49:12.592Z,20.40
2022-10-18T12:51:58.631Z,20.60
2022-10-18T12:54:30.551Z,20.80
2022-10-18T12:57:05.763Z,20.70
2022-10-18T13:00:05.529Z,21.00
2022-10-18T13:02:40.625Z,21.50
2022-10-18T13:06:04.226Z,21.70
2022-10-18T13:08:48.609Z,21.70
2022-10-18T13:11:36.997Z,21.90
2022-10-18T13:14:41.101Z,21.80
2022-10-18T13:17:28.307Z,22.10
2022-10-18T13:20:31.260Z,21.90
2022-10-18T13:23:24.369Z,21.50
2022-10-18T13:26:09.619Z,21.10
2022-10-18T13:28:46.562Z,20.90
2022-10-18T13:31:29.754Z,20.70
2022-10-18T13:34:20.607Z,20.80
2022-10-18T13:37:07.806Z,20.60
2022-10-18T13:39:36.706Z,20.50
2022-10-18T13:42:37.645Z,20.30
2022-10-18T13:45:50.034Z,20.30
2022-10-18T13:48:53.854Z,20.40
2022-10-18T13:51:44.590Z,20.50
2022-10-18T13:54:38.771Z,20.30
2022-10-18T13:57:18.965Z,20.10
2022-10-18T14:00:11.682Z,20.10
2022-10-18T14:02:58.483Z,20.00
2022-10-18T14:05:57.660Z,19.90
2022-10-18T14:11:13.722Z,19.70
2022-10-18T14:13:48.939Z,19.70
2022-10-18T14:16:38.737Z,19.60
2022-10-18T14:19:17.770Z,19.50
2022-10-18T14:22:00.657Z,19.60
2022-10-18T14:24:32.223Z,19.60
2022-10-18T14:27:23.737Z,19.60
2022-10-18T14:30:10.533Z,19.60
2022-10-18T14:32:45.712Z,19.50
2022-10-18T14:35:37.899Z,19.50
2022-10-18T14:38:21.929Z,19.40
2022-10-18T14:40:51.834Z,19.30
2022-10-18T14:43:27.729Z,19.40
2022-10-18T14:46:03.372Z,19.40
2022-10-18T14:48:44.889Z,19.40
2022-10-18T14:51:15.005Z,19.40
2022-10-18T14:53:49.705Z,19.40
2022-10-18T14:56:25.748Z,19.40
2022-10-18T14:59:02.726Z,19.20
2022-10-18T15:01:33.970Z,19.10
2022-10-18T15:04:13.793Z,19.10
2022-10-18T15:06:45.551Z,19.10
2022-10-18T15:09:23.071Z,19.10
2022-10-18T15:11:54.886Z,19.00
2022-10-18T15:14:31.018Z,19.00
2022-10-18T15:17:04.173Z,19.00
2022-10-18T15:19:41.959Z,18.90
2022-10-18T15:22:30.915Z,18.90
2022-10-18T15:25:22.823Z,18.90
2022-10-18T15:28:01.762Z,18.80
2022-10-18T15:30:37.996Z,18.80
2022-10-18T15:33:23.630Z,18.70
2022-10-18T15:35:53.921Z,18.60
2022-10-18T15:38:34.765Z,18.50
2022-10-18T15:41:03.583Z,18.50
2022-10-18T15:43:46.814Z,18.40
2022-10-18T15:46:45.904Z,18.40
2022-10-18T15:50:01.111Z,18.40
2022-10-18T15:52:38.897Z,18.30
2022-10-18T15:56:04.017Z,18.30
2022-10-18T15:58:47.719Z,18.30
2022-10-18T16:01:27.007Z,18.20
2022-10-18T16:03:56.025Z,18.20
2022-10-18T16:06:31.803Z,18.10
2022-10-18T16:09:00.363Z,18.10
2022-10-18T16:11:36.945Z,18.00
2022-10-18T16:14:12.847Z,18.00
2022-10-18T16:16:42.213Z,17.90
2022-10-18T16:19:21.774Z,17.80
2022-10-18T16:21:50.709Z,17.80
2022-10-18T16:24:25.967Z,17.80
2022-10-18T16:26:54.568Z,17.70
2022-10-18T16:29:33.987Z,17.60
2022-10-18T16:32:02.433Z,17.50
2022-10-18T16:34:38.886Z,17.50
2022-10-18T16:37:07.441Z,17.40
2022-10-18T16:39:43.009Z,17.40
2022-10-18T16:42:11.253Z,17.30
2022-10-18T16:44:48.163Z,17.20
2022-10-18T16:47:35.788Z,17.20
2022-10-18T16:50:14.866Z,17.10
2022-10-18T16:52:43.392Z,17.10
2022-10-18T16:55:27.837Z,17.00
2022-10-18T16:57:56.284Z,17.00
2022-10-18T17:00:33.026Z,16.90
2022-10-18T17:03:01.577Z,16.90
2022-10-18T17:05:37.993Z,16.80
2022-10-18T17:08:07.729Z,16.70
2022-10-18T17:10:43.069Z,16.60
2022-10-18T17:13:11.551Z,16.60
2022-10-18T17:15:48.951Z,16.50
2022-10-18T17:18:20.401Z,16.50
2022-10-18T17:20:55.917Z,16.40
2022-10-18T17:23:24.837Z,16.40
2022-10-18T17:26:07.128Z,16.30
2022-10-18T17:28:53.038Z,16.30
2022-10-18T17:31:29.926Z,16.20
2022-10-18T17:33:58.818Z,16.20
2022-10-18T17:36:35.207Z,16.10
2022-10-18T17:39:05.049Z,16.00
2022-10-18T17:41:40.078Z,16.00
2022-10-18T17:44:09.077Z,16.00
2022-10-18T17:46:45.902Z,15.90
2022-10-18T17:49:22.238Z,15.90
2022-10-18T17:52:02.092Z,15.80
2022-10-18T17:54:33.251Z,15.80
2022-10-18T17:57:07.964Z,15.70
2022-10-18T17:59:37.502Z,15.60
2022-10-18T18:02:14.970Z,15.60
2022-10-18T18:04:43.896Z,15.50
2022-10-18T18:07:18.963Z,15.50
2022-10-18T18:09:47.826Z,15.40
2022-10-18T18:12:23.091Z,15.40
2022-10-18T18:14:51.887Z,15.30
2022-10-18T18:17:34.097Z,15.20
2022-10-18T18:20:02.836Z,15.20
2022-10-18T18:22:40.444Z,15.10
2022-10-18T18:25:11.635Z,15.10
2022-10-18T18:27:47.224Z,15.00
2022-10-18T18:30:17.855Z,15.00
2022-10-18T18:32:53.958Z,14.90
2022-10-18T18:35:22.547Z,14.90
2022-10-18T18:37:57.997Z,14.80
2022-10-18T18:40:26.597Z,14.80
2022-10-18T18:43:19.000Z,14.70
2022-10-18T18:46:00.317Z,14.70
2022-10-18T18:48:37.550Z,14.60
2022-10-18T18:51:14.105Z,14.60
2022-10-18T18:53:43.866Z,14.60
2022-10-18T18:56:22.919Z,14.60
2022-10-18T18:58:52.544Z,14.50
2022-10-18T19:01:30.071Z,14.40
2022-10-18T19:04:01.116Z,14.40
2022-10-18T19:06:37.958Z,14.40
2022-10-18T19:09:08.094Z,14.30
2022-10-18T19:11:45.186Z,14.30
2022-10-18T19:14:14.414Z,14.20
2022-10-18T19:16:54.009Z,14.20
2022-10-18T19:19:25.842Z,14.20
2022-10-18T19:22:02.028Z,14.20
2022-10-18T19:24:32.415Z,14.20
2022-10-18T19:27:09.993Z,14.10
2022-10-18T19:29:40.226Z,14.10
2022-10-18T19:32:20.039Z,14.00
2022-10-18T19:34:50.025Z,14.00
2022-10-18T19:37:25.150Z,14.00
2022-10-18T19:39:53.778Z,14.00
2022-10-18T19:42:31.386Z,14.00
2022-10-18T19:45:00.670Z,13.90
2022-10-18T19:47:41.964Z,13.90
2022-10-18T19:50:18.557Z,13.80
2022-10-18T19:52:53.057Z,13.80
2022-10-18T19:55:21.916Z,13.80
2022-10-18T19:57:57.172Z,13.70
2022-10-18T20:00:25.785Z,13.70
2022-10-18T20:03:00.995Z,13.60
2022-10-18T20:05:30.838Z,13.50
2022-10-18T20:08:05.985Z,13.40
2022-10-18T20:10:34.356Z,13.40
2022-10-18T20:13:09.163Z,13.30
2022-10-18T20:15:37.646Z,13.30
2022-10-18T20:18:13.092Z,13.20
2022-10-18T20:20:45.833Z,13.20
2022-10-18T20:23:23.249Z,13.10
2022-10-18T20:25:59.365Z,13.20
2022-10-18T20:28:35.112Z,13.10
2022-10-18T20:31:05.934Z,13.10
2022-10-18T20:33:42.046Z,13.00
2022-10-18T20:36:13.188Z,13.10
2022-10-18T20:38:50.183Z,13.00
2022-10-18T20:41:20.418Z,13.00
2022-10-18T20:43:59.053Z,13.00
2022-10-18T20:46:28.376Z,12.90
2022-10-18T20:49:10.066Z,12.90
2022-10-18T20:51:40.064Z,12.80
2022-10-18T20:54:16.184Z,12.80
2022-10-18T20:56:44.596Z,12.80
2022-10-18T20:59:20.194Z,12.70
2022-10-18T21:01:48.846Z,12.70
2022-10-18T21:04:24.042Z,12.60
2022-10-18T21:06:54.248Z,12.60
2022-10-18T21:09:29.225Z,12.60
2022-10-18T21:11:57.777Z,12.50
2022-10-18T21:14:33.112Z,12.50
2022-10-18T21:17:01.878Z,12.50
2022-10-18T21:19:37.246Z,12.40
2022-10-18T21:22:07.187Z,12.40
2022-10-18T21:24:42.144Z,12.40
2022-10-18T21:27:10.954Z,12.30
2022-10-18T21:29:46.439Z,12.30
2022-10-18T21:32:14.956Z,12.30
2022-10-18T21:34:50.122Z,12.20
2022-10-18T21:37:20.008Z,12.20
2022-10-18T21:39:55.227Z,12.10
2022-10-18T21:42:23.576Z,12.10
2022-10-18T21:44:59.122Z,12.10
2022-10-18T21:47:33.775Z,12.10
2022-10-18T21:50:16.101Z,12.00
2022-10-18T21:52:45.944Z,12.00
2022-10-18T21:55:21.144Z,12.00
2022-10-18T21:57:49.489Z,11.90
2022-10-18T22:00:25.111Z,11.90
2022-10-18T22:03:14.175Z,11.90
2022-10-18T22:05:42.575Z,11.80
2022-10-18T22:08:19.185Z,11.80
2022-10-18T22:10:47.630Z,11.80
2022-10-18T22:13:22.137Z,11.80
2022-10-18T22:15:50.709Z,11.80
2022-10-18T22:18:26.332Z,11.70
2022-10-18T22:20:56.275Z,11.70
2022-10-18T22:23:33.160Z,11.70
2022-10-18T22:26:05.146Z,11.70
2022-10-18T22:28:40.340Z,11.70
2022-10-18T22:31:15.703Z,11.60
2022-10-18T22:33:51.316Z,11.60
2022-10-18T22:36:19.789Z,11.60
2022-10-18T22:38:56.147Z,11.60
2022-10-18T22:41:38.629Z,11.60
2022-10-18T22:44:21.280Z,11.50
2022-10-18T22:46:49.765Z,11.50
2022-10-18T22:49:31.191Z,11.50
2022-10-18T22:51:59.578Z,11.40
2022-10-18T22:54:36.447Z,11.40
2022-10-18T22:57:04.967Z,11.30
2022-10-18T22:59:40.311Z,11.30
2022-10-18T23:02:08.884Z,11.30
2022-10-18T23:04:44.319Z,11.30
2022-10-18T23:07:12.787Z,11.20
2022-10-18T23:09:49.233Z,11.20
2022-10-18T23:12:17.678Z,11.20
2022-10-18T23:14:52.341Z,11.10
2022-10-18T23:17:20.785Z,11.10
2022-10-18T23:19:56.245Z,11.10
2022-10-18T23:22:25.023Z,11.10
2022-10-18T23:25:02.054Z,11.10
2022-10-18T23:27:31.039Z,11.10
2022-10-18T23:30:06.367Z,11.10
2022-10-18T23:32:35.000Z,11.00
2022-10-18T23:35:10.502Z,11.00
2022-10-18T23:37:38.948Z,11.00
2022-10-18T23:40:17.352Z,10.90
2022-10-18T23:42:45.782Z,10.90
2022-10-18T23:45:20.232Z,10.90
2022-10-18T23:48:08.191Z,10.80
2022-10-18T23:50:43.397Z,10.80
2022-10-18T23:53:11.866Z,10.80
2022-10-18T23:55:56.269Z,10.70
2022-10-18T23:58:25.285Z,10.70
